sensor_id;sensor_type;location;lat;lon;timestamp;pressure;altitude;pressure_sealevel;temperature;humidity
61682;BME280;47577;43.610;25.010;2024-02-04T00:01:39;100735.16;;;5.83;80.07
61682;BME280;47577;43.610;25.010;2024-02-04T00:04:05;100733.38;;;5.84;79.83
61682;BME280;47577;43.610;25.010;2024-02-04T00:06:31;100733.41;;;5.81;80.78
61682;BME280;47577;43.610;25.010;2024-02-04T00:08:56;100730.75;;;5.82;80.55
61682;BME280;47577;43.610;25.010;2024-02-04T00:11:22;100747.44;;;5.84;80.48
61682;BME280;47577;43.610;25.010;2024-02-04T00:13:48;100732.47;;;5.90;80.07
61682;BME280;47577;43.610;25.010;2024-02-04T00:16:14;100735.94;;;5.96;80.40
61682;BME280;47577;43.610;25.010;2024-02-04T00:18:39;100746.31;;;6.16;79.76
61682;BME280;47577;43.610;25.010;2024-02-04T00:21:05;100742.75;;;6.20;80.03
61682;BME280;47577;43.610;25.010;2024-02-04T00:23:30;100726.91;;;6.20;79.92
61682;BME280;47577;43.610;25.010;2024-02-04T00:25:56;100722.31;;;6.36;79.89
61682;BME280;47577;43.610;25.010;2024-02-04T00:28:22;100724.84;;;6.46;79.80
61682;BME280;47577;43.610;25.010;2024-02-04T00:30:47;100726.41;;;6.64;79.46
61682;BME280;47577;43.610;25.010;2024-02-04T00:33:15;100721.03;;;6.70;79.25
61682;BME280;47577;43.610;25.010;2024-02-04T00:35:42;100728.75;;;6.87;78.75
61682;BME280;47577;43.610;25.010;2024-02-04T00:38:07;100707.50;;;6.93;78.64
61682;BME280;47577;43.610;25.010;2024-02-04T00:40:34;100700.25;;;7.07;78.05
61682;BME280;47577;43.610;25.010;2024-02-04T00:43:00;100712.44;;;7.19;78.15
61682;BME280;47577;43.610;25.010;2024-02-04T00:45:26;100728.13;;;7.31;77.37
61682;BME280;47577;43.610;25.010;2024-02-04T00:47:51;100711.34;;;7.34;76.51
61682;BME280;47577;43.610;25.010;2024-02-04T00:50:17;100713.88;;;7.40;76.71
61682;BME280;47577;43.610;25.010;2024-02-04T00:52:43;100713.03;;;7.37;77.25
61682;BME280;47577;43.610;25.010;2024-02-04T00:55:09;100702.53;;;7.32;77.38
61682;BME280;47577;43.610;25.010;2024-02-04T00:57:34;100696.41;;;7.28;77.67
61682;BME280;47577;43.610;25.010;2024-02-04T01:00:00;100692.94;;;7.26;76.95
61682;BME280;47577;43.610;25.010;2024-02-04T01:02:26;100701.75;;;7.25;77.23
61682;BME280;47577;43.610;25.010;2024-02-04T01:04:52;100698.28;;;7.22;77.44
61682;BME280;47577;43.610;25.010;2024-02-04T01:07:18;100695.72;;;7.17;76.51
61682;BME280;47577;43.610;25.010;2024-02-04T01:09:43;100697.41;;;7.23;76.62
61682;BME280;47577;43.610;25.010;2024-02-04T01:12:09;100700.94;;;7.22;76.60
61682;BME280;47577;43.610;25.010;2024-02-04T01:14:35;100686.00;;;7.19;76.36
61682;BME280;47577;43.610;25.010;2024-02-04T01:17:00;100677.09;;;7.23;76.55
61682;BME280;47577;43.610;25.010;2024-02-04T01:19:26;100678.00;;;7.21;76.40
61682;BME280;47577;43.610;25.010;2024-02-04T01:21:51;100660.31;;;7.26;77.11
61682;BME280;47577;43.610;25.010;2024-02-04T01:24:17;100670.69;;;7.38;76.65
61682;BME280;47577;43.610;25.010;2024-02-04T01:26:43;100671.41;;;7.48;75.38
61682;BME280;47577;43.610;25.010;2024-02-04T01:29:08;100662.66;;;7.44;76.16
61682;BME280;47577;43.610;25.010;2024-02-04T01:31:34;100658.09;;;7.54;75.31
61682;BME280;47577;43.610;25.010;2024-02-04T01:34:00;100653.41;;;7.70;74.58
61682;BME280;47577;43.610;25.010;2024-02-04T01:36:25;100652.31;;;7.80;74.74
61682;BME280;47577;43.610;25.010;2024-02-04T01:38:51;100626.81;;;7.76;74.62
61682;BME280;47577;43.610;25.010;2024-02-04T01:41:17;100614.44;;;7.77;74.74
61682;BME280;47577;43.610;25.010;2024-02-04T01:43:42;100639.06;;;7.82;74.40
61682;BME280;47577;43.610;25.010;2024-02-04T01:46:09;100611.66;;;7.84;73.67
61682;BME280;47577;43.610;25.010;2024-02-04T01:48:36;100613.47;;;7.82;74.28
61682;BME280;47577;43.610;25.010;2024-02-04T01:51:02;100604.53;;;7.88;72.88
61682;BME280;47577;43.610;25.010;2024-02-04T01:53:29;100626.47;;;7.95;73.03
61682;BME280;47577;43.610;25.010;2024-02-04T01:55:57;100594.75;;;7.92;73.13
61682;BME280;47577;43.610;25.010;2024-02-04T01:58:24;100589.63;;;7.84;72.35
61682;BME280;47577;43.610;25.010;2024-02-04T02:00:50;100612.31;;;7.97;73.36
61682;BME280;47577;43.610;25.010;2024-02-04T02:03:16;100579.44;;;8.06;73.04
61682;BME280;47577;43.610;25.010;2024-02-04T02:05:42;100582.00;;;8.11;72.58
61682;BME280;47577;43.610;25.010;2024-02-04T02:08:08;100583.88;;;8.05;71.91
61682;BME280;47577;43.610;25.010;2024-02-04T02:10:35;100590.03;;;8.08;71.90
61682;BME280;47577;43.610;25.010;2024-02-04T02:13:07;100597.72;;;8.20;71.42
61682;BME280;47577;43.610;25.010;2024-02-04T02:15:40;100632.34;;;8.11;71.79
61682;BME280;47577;43.610;25.010;2024-02-04T02:18:14;100609.44;;;8.06;72.77
61682;BME280;47577;43.610;25.010;2024-02-04T02:23:30;100623.66;;;8.02;71.41
61682;BME280;47577;43.610;25.010;2024-02-04T02:25:56;100627.19;;;8.03;71.96
61682;BME280;47577;43.610;25.010;2024-02-04T02:28:23;100624.66;;;7.97;72.20
61682;BME280;47577;43.610;25.010;2024-02-04T02:30:49;100609.00;;;7.86;73.45
61682;BME280;47577;43.610;25.010;2024-02-04T02:33:14;100617.78;;;7.86;72.65
61682;BME280;47577;43.610;25.010;2024-02-04T02:35:40;100627.56;;;7.83;73.16
61682;BME280;47577;43.610;25.010;2024-02-04T02:38:46;100615.22;;;7.82;73.77
61682;BME280;47577;43.610;25.010;2024-02-04T02:41:16;100630.41;;;7.72;73.84
61682;BME280;47577;43.610;25.010;2024-02-04T02:43:43;100618.06;;;7.73;74.13
61682;BME280;47577;43.610;25.010;2024-02-04T02:46:10;100642.78;;;7.72;73.89
61682;BME280;47577;43.610;25.010;2024-02-04T02:48:35;100627.19;;;7.55;75.03
61682;BME280;47577;43.610;25.010;2024-02-04T02:51:01;100653.59;;;7.58;74.44
61682;BME280;47577;43.610;25.010;2024-02-04T02:53:27;100627.31;;;7.50;75.50
61682;BME280;47577;43.610;25.010;2024-02-04T02:55:52;100637.91;;;7.48;75.50
61682;BME280;47577;43.610;25.010;2024-02-04T02:58:18;100640.78;;;7.33;75.30
61682;BME280;47577;43.610;25.010;2024-02-04T03:00:43;100641.63;;;7.35;76.03
61682;BME280;47577;43.610;25.010;2024-02-04T03:03:10;100632.91;;;7.30;75.74
61682;BME280;47577;43.610;25.010;2024-02-04T03:05:36;100637.34;;;7.29;76.23
61682;BME280;47577;43.610;25.010;2024-02-04T03:08:03;100649.69;;;7.30;76.64
61682;BME280;47577;43.610;25.010;2024-02-04T03:10:29;100650.53;;;7.31;76.17
61682;BME280;47577;43.610;25.010;2024-02-04T03:12:55;100646.94;;;7.33;76.54
61682;BME280;47577;43.610;25.010;2024-02-04T03:15:20;100620.72;;;7.21;76.71
61682;BME280;47577;43.610;25.010;2024-02-04T03:17:46;100625.91;;;7.27;77.04
61682;BME280;47577;43.610;25.010;2024-02-04T03:20:11;100637.38;;;7.28;77.04
61682;BME280;47577;43.610;25.010;2024-02-04T03:22:37;100635.78;;;7.16;77.14
61682;BME280;47577;43.610;25.010;2024-02-04T03:25:03;100622.47;;;7.21;78.12
61682;BME280;47577;43.610;25.010;2024-02-04T03:27:28;100621.59;;;7.20;77.75
61682;BME280;47577;43.610;25.010;2024-02-04T03:29:54;100615.38;;;7.26;77.49
61682;BME280;47577;43.610;25.010;2024-02-04T03:32:20;100613.66;;;7.22;77.95
61682;BME280;47577;43.610;25.010;2024-02-04T03:34:45;100609.19;;;7.25;77.36
61682;BME280;47577;43.610;25.010;2024-02-04T03:37:11;100615.44;;;7.21;78.00
61682;BME280;47577;43.610;25.010;2024-02-04T03:39:37;100625.91;;;7.29;78.02
61682;BME280;47577;43.610;25.010;2024-02-04T03:42:02;100607.47;;;7.23;77.54
61682;BME280;47577;43.610;25.010;2024-02-04T03:44:28;100642.53;;;7.36;77.96
61682;BME280;47577;43.610;25.010;2024-02-04T03:46:54;100618.72;;;7.36;77.62
61682;BME280;47577;43.610;25.010;2024-02-04T03:49:19;100607.38;;;7.29;77.69
61682;BME280;47577;43.610;25.010;2024-02-04T03:51:45;100600.28;;;7.31;78.05
61682;BME280;47577;43.610;25.010;2024-02-04T03:54:11;100612.59;;;7.32;77.66
61682;BME280;47577;43.610;25.010;2024-02-04T03:56:36;100617.97;;;7.27;78.71
61682;BME280;47577;43.610;25.010;2024-02-04T03:59:05;100621.41;;;7.32;78.34
61682;BME280;47577;43.610;25.010;2024-02-04T04:01:32;100612.78;;;7.21;79.18
61682;BME280;47577;43.610;25.010;2024-02-04T04:03:59;100635.66;;;7.22;79.06
61682;BME280;47577;43.610;25.010;2024-02-04T04:06:24;100625.91;;;7.29;78.57
61682;BME280;47577;43.610;25.010;2024-02-04T04:08:50;100618.91;;;7.25;78.66
61682;BME280;47577;43.610;25.010;2024-02-04T04:11:15;100611.88;;;7.22;78.56
61682;BME280;47577;43.610;25.010;2024-02-04T04:13:41;100618.06;;;7.21;79.32
61682;BME280;47577;43.610;25.010;2024-02-04T04:16:07;100638.19;;;7.30;79.25
61682;BME280;47577;43.610;25.010;2024-02-04T04:18:32;100632.94;;;7.28;78.98
61682;BME280;47577;43.610;25.010;2024-02-04T04:20:58;100623.31;;;7.24;79.22
61682;BME280;47577;43.610;25.010;2024-02-04T04:23:24;100650.69;;;7.22;79.29
61682;BME280;47577;43.610;25.010;2024-02-04T04:25:49;100651.69;;;7.14;79.18
61682;BME280;47577;43.610;25.010;2024-02-04T04:28:15;100645.56;;;7.11;79.33
61682;BME280;47577;43.610;25.010;2024-02-04T04:30:41;100614.88;;;7.01;80.07
61682;BME280;47577;43.610;25.010;2024-02-04T04:33:06;100626.38;;;6.98;79.56
61682;BME280;47577;43.610;25.010;2024-02-04T04:35:33;100625.53;;;6.94;80.42
61682;BME280;47577;43.610;25.010;2024-02-04T04:37:59;100617.66;;;6.91;80.39
61682;BME280;47577;43.610;25.010;2024-02-04T04:40:24;100621.16;;;6.95;80.11
61682;BME280;47577;43.610;25.010;2024-02-04T04:42:50;100616.81;;;6.88;80.50
61682;BME280;47577;43.610;25.010;2024-02-04T04:45:15;100638.03;;;6.85;80.37
61682;BME280;47577;43.610;25.010;2024-02-04T04:47:41;100649.47;;;6.87;80.35
61682;BME280;47577;43.610;25.010;2024-02-04T04:50:07;100638.91;;;6.85;80.88
61682;BME280;47577;43.610;25.010;2024-02-04T04:52:33;100638.06;;;6.80;80.52
61682;BME280;47577;43.610;25.010;2024-02-04T04:54:59;100639.84;;;6.81;80.59
61682;BME280;47577;43.610;25.010;2024-02-04T04:57:24;100637.19;;;6.83;81.20
61682;BME280;47577;43.610;25.010;2024-02-04T04:59:50;100632.00;;;6.73;81.41
61682;BME280;47577;43.610;25.010;2024-02-04T05:02:16;100643.38;;;6.78;80.86
61682;BME280;47577;43.610;25.010;2024-02-04T05:04:44;100645.22;;;6.73;81.11
61682;BME280;47577;43.610;25.010;2024-02-04T05:07:10;100640.81;;;6.75;81.20
61682;BME280;47577;43.610;25.010;2024-02-04T05:09:36;100648.66;;;6.78;81.18
61682;BME280;47577;43.610;25.010;2024-02-04T05:12:08;100646.88;;;6.82;81.55
61682;BME280;47577;43.610;25.010;2024-02-04T05:14:34;100644.31;;;6.76;81.43
61682;BME280;47577;43.610;25.010;2024-02-04T05:17:00;100641.69;;;6.76;81.89
61682;BME280;47577;43.610;25.010;2024-02-04T05:19:25;100640.84;;;6.74;81.81
61682;BME280;47577;43.610;25.010;2024-02-04T05:21:51;100639.03;;;6.76;81.83
61682;BME280;47577;43.610;25.010;2024-02-04T05:24:16;100625.88;;;6.73;81.83
61682;BME280;47577;43.610;25.010;2024-02-04T05:26:42;100642.59;;;6.73;82.08
61682;BME280;47577;43.610;25.010;2024-02-04T05:29:08;100636.47;;;6.70;81.72
61682;BME280;47577;43.610;25.010;2024-02-04T05:31:33;100661.88;;;6.78;81.98
61682;BME280;47577;43.610;25.010;2024-02-04T05:33:59;100653.94;;;6.80;81.91
61682;BME280;47577;43.610;25.010;2024-02-04T05:36:24;100663.72;;;6.75;81.95
61682;BME280;47577;43.610;25.010;2024-02-04T05:38:50;100654.13;;;6.68;82.46
61682;BME280;47577;43.610;25.010;2024-02-04T05:41:15;100661.81;;;6.85;81.68
61682;BME280;47577;43.610;25.010;2024-02-04T05:43:41;100661.03;;;6.78;82.12
61682;BME280;47577;43.610;25.010;2024-02-04T05:46:07;100664.53;;;6.78;82.03
61682;BME280;47577;43.610;25.010;2024-02-04T05:48:32;100660.09;;;6.82;81.81
61682;BME280;47577;43.610;25.010;2024-02-04T05:50:59;100660.94;;;6.84;81.91
61682;BME280;47577;43.610;25.010;2024-02-04T05:53:25;100657.47;;;6.82;81.74
61682;BME280;47577;43.610;25.010;2024-02-04T05:55:51;100667.06;;;6.86;81.99
61682;BME280;47577;43.610;25.010;2024-02-04T05:58:16;100657.47;;;6.81;81.66
61682;BME280;47577;43.610;25.010;2024-02-04T06:00:42;100657.44;;;6.84;82.18
61682;BME280;47577;43.610;25.010;2024-02-04T06:03:07;100656.59;;;6.78;81.54
61682;BME280;47577;43.610;25.010;2024-02-04T06:05:33;100667.41;;;6.63;81.71
61682;BME280;47577;43.610;25.010;2024-02-04T06:07:58;100668.47;;;6.48;83.02
61682;BME280;47577;43.610;25.010;2024-02-04T06:10:24;100679.09;;;6.44;83.39
61682;BME280;47577;43.610;25.010;2024-02-04T06:12:50;100666.84;;;6.36;83.64
61682;BME280;47577;43.610;25.010;2024-02-04T06:15:16;100680.06;;;6.35;84.08
61682;BME280;47577;43.610;25.010;2024-02-04T06:17:42;100669.56;;;6.33;83.79
61682;BME280;47577;43.610;25.010;2024-02-04T06:20:08;100673.00;;;6.38;83.57
61682;BME280;47577;43.610;25.010;2024-02-04T06:22:35;100675.47;;;6.51;83.50
61682;BME280;47577;43.610;25.010;2024-02-04T06:25:01;100665.75;;;6.54;83.38
61682;BME280;47577;43.610;25.010;2024-02-04T06:27:27;100678.03;;;6.57;83.60
61682;BME280;47577;43.610;25.010;2024-02-04T06:29:53;100677.91;;;6.68;83.40
61682;BME280;47577;43.610;25.010;2024-02-04T06:32:18;100685.75;;;6.74;82.57
61682;BME280;47577;43.610;25.010;2024-02-04T06:34:47;100694.41;;;6.87;82.87
61682;BME280;47577;43.610;25.010;2024-02-04T06:37:12;100698.63;;;6.99;81.84
61682;BME280;47577;43.610;25.010;2024-02-04T06:39:38;100710.78;;;7.12;81.68
61682;BME280;47577;43.610;25.010;2024-02-04T06:42:05;100704.44;;;7.22;81.56
61682;BME280;47577;43.610;25.010;2024-02-04T06:44:31;100691.09;;;7.31;80.46
61682;BME280;47577;43.610;25.010;2024-02-04T06:46:56;100699.66;;;7.46;80.71
61682;BME280;47577;43.610;25.010;2024-02-04T06:49:22;100699.47;;;7.60;80.42
61682;BME280;47577;43.610;25.010;2024-02-04T06:51:48;100709.66;;;7.81;79.32
61682;BME280;47577;43.610;25.010;2024-02-04T06:54:14;100700.75;;;7.85;78.44
61682;BME280;47577;43.610;25.010;2024-02-04T06:56:40;100690.13;;;7.88;78.21
61682;BME280;47577;43.610;25.010;2024-02-04T06:59:05;100702.38;;;7.94;77.54
61682;BME280;47577;43.610;25.010;2024-02-04T07:01:32;100705.63;;;8.10;77.58
61682;BME280;47577;43.610;25.010;2024-02-04T07:03:58;100702.94;;;8.13;77.38
61682;BME280;47577;43.610;25.010;2024-02-04T07:06:23;100709.06;;;8.15;77.12
61682;BME280;47577;43.610;25.010;2024-02-04T07:08:49;100700.34;;;8.09;77.59
61682;BME280;47577;43.610;25.010;2024-02-04T07:11:15;100700.13;;;8.19;77.50
61682;BME280;47577;43.610;25.010;2024-02-04T07:13:41;100685.91;;;8.25;76.96
61682;BME280;47577;43.610;25.010;2024-02-04T07:16:07;100709.69;;;8.28;77.11
61682;BME280;47577;43.610;25.010;2024-02-04T07:18:33;100706.97;;;8.33;77.61
61682;BME280;47577;43.610;25.010;2024-02-04T07:20:58;100704.25;;;8.36;76.12
61682;BME280;47577;43.610;25.010;2024-02-04T07:23:24;100705.97;;;8.37;76.67
61682;BME280;47577;43.610;25.010;2024-02-04T07:25:49;100702.31;;;8.47;76.20
61682;BME280;47577;43.610;25.010;2024-02-04T07:28:15;100697.97;;;8.40;76.77
61682;BME280;47577;43.610;25.010;2024-02-04T07:30:41;100693.31;;;8.54;76.43
61682;BME280;47577;43.610;25.010;2024-02-04T07:33:06;100712.94;;;8.46;75.89
61682;BME280;47577;43.610;25.010;2024-02-04T07:35:32;100697.69;;;8.57;76.06
61682;BME280;47577;43.610;25.010;2024-02-04T07:37:57;100708.03;;;8.68;76.56
61682;BME280;47577;43.610;25.010;2024-02-04T07:40:23;100717.91;;;8.61;74.93
61682;BME280;47577;43.610;25.010;2024-02-04T07:42:49;100712.16;;;8.81;75.20
61682;BME280;47577;43.610;25.010;2024-02-04T07:45:14;100695.38;;;8.82;76.80
61682;BME280;47577;43.610;25.010;2024-02-04T07:47:40;100706.38;;;9.04;75.24
61682;BME280;47577;43.610;25.010;2024-02-04T07:50:07;100716.94;;;9.07;74.51
61682;BME280;47577;43.610;25.010;2024-02-04T07:52:32;100721.72;;;9.29;73.53
61682;BME280;47577;43.610;25.010;2024-02-04T07:54:58;100702.16;;;9.35;73.56
61682;BME280;47577;43.610;25.010;2024-02-04T07:57:24;100720.88;;;9.28;73.30
61682;BME280;47577;43.610;25.010;2024-02-04T07:59:49;100711.56;;;9.10;73.54
61682;BME280;47577;43.610;25.010;2024-02-04T08:02:15;100716.72;;;9.15;73.18
61682;BME280;47577;43.610;25.010;2024-02-04T08:04:41;100719.22;;;9.23;73.51
61682;BME280;47577;43.610;25.010;2024-02-04T08:07:07;100729.94;;;9.17;72.69
61682;BME280;47577;43.610;25.010;2024-02-04T08:09:32;100734.38;;;9.18;72.51
61682;BME280;47577;43.610;25.010;2024-02-04T08:11:58;100724.44;;;9.26;73.18
61682;BME280;47577;43.610;25.010;2024-02-04T08:14:23;100725.25;;;9.29;72.07
61682;BME280;47577;43.610;25.010;2024-02-04T08:16:49;100723.50;;;9.28;73.09
61682;BME280;47577;43.610;25.010;2024-02-04T08:19:15;100738.44;;;9.32;73.03
61682;BME280;47577;43.610;25.010;2024-02-04T08:21:41;100736.97;;;9.19;74.41
61682;BME280;47577;43.610;25.010;2024-02-04T08:24:06;100730.44;;;9.34;73.16
61682;BME280;47577;43.610;25.010;2024-02-04T08:26:32;100726.69;;;9.44;71.33
61682;BME280;47577;43.610;25.010;2024-02-04T08:28:59;100738.97;;;9.48;72.62
61682;BME280;47577;43.610;25.010;2024-02-04T08:31:24;100726.38;;;9.57;72.70
61682;BME280;47577;43.610;25.010;2024-02-04T08:33:50;100730.63;;;9.64;71.79
61682;BME280;47577;43.610;25.010;2024-02-04T08:36:18;100730.59;;;9.65;70.98
61682;BME280;47577;43.610;25.010;2024-02-04T08:38:44;100722.72;;;9.62;72.00
61682;BME280;47577;43.610;25.010;2024-02-04T08:41:09;100733.97;;;9.72;72.42
61682;BME280;47577;43.610;25.010;2024-02-04T08:43:35;100748.06;;;9.74;70.82
61682;BME280;47577;43.610;25.010;2024-02-04T08:46:00;100726.03;;;9.70;71.78
61682;BME280;47577;43.610;25.010;2024-02-04T08:48:26;100736.63;;;9.72;71.54
61682;BME280;47577;43.610;25.010;2024-02-04T08:50:51;100719.00;;;9.68;71.95
61682;BME280;47577;43.610;25.010;2024-02-04T08:53:19;100730.16;;;9.82;70.55
61682;BME280;47577;43.610;25.010;2024-02-04T08:55:45;100731.91;;;9.83;70.29
61682;BME280;47577;43.610;25.010;2024-02-04T08:58:10;100735.13;;;9.60;71.24
61682;BME280;47577;43.610;25.010;2024-02-04T09:00:36;100732.72;;;9.51;71.68
61682;BME280;47577;43.610;25.010;2024-02-04T09:03:02;100731.50;;;9.64;71.50
61682;BME280;47577;43.610;25.010;2024-02-04T09:05:27;100725.44;;;9.59;72.90
61682;BME280;47577;43.610;25.010;2024-02-04T09:07:53;100728.47;;;9.78;71.53
61682;BME280;47577;43.610;25.010;2024-02-04T09:10:21;100729.06;;;9.89;71.28
61682;BME280;47577;43.610;25.010;2024-02-04T09:12:46;100746.09;;;9.82;71.38
61682;BME280;47577;43.610;25.010;2024-02-04T09:15:12;100746.69;;;9.94;70.32
61682;BME280;47577;43.610;25.010;2024-02-04T09:17:38;100754.66;;;9.94;71.21
61682;BME280;47577;43.610;25.010;2024-02-04T09:20:04;100754.66;;;9.94;71.45
61682;BME280;47577;43.610;25.010;2024-02-04T09:22:30;100750.19;;;9.96;70.29
61682;BME280;47577;43.610;25.010;2024-02-04T09:24:55;100746.31;;;10.09;70.59
61682;BME280;47577;43.610;25.010;2024-02-04T09:27:21;100782.63;;;10.09;69.79
61682;BME280;47577;43.610;25.010;2024-02-04T09:29:46;100766.31;;;10.22;69.64
61682;BME280;47577;43.610;25.010;2024-02-04T09:32:12;100751.38;;;10.18;69.83
61682;BME280;47577;43.610;25.010;2024-02-04T09:34:38;100748.28;;;10.01;71.03
61682;BME280;47577;43.610;25.010;2024-02-04T09:37:04;100782.47;;;10.15;70.05
61682;BME280;47577;43.610;25.010;2024-02-04T09:39:30;100767.22;;;10.21;69.43
61682;BME280;47577;43.610;25.010;2024-02-04T09:41:55;100743.50;;;10.14;69.30
61682;BME280;47577;43.610;25.010;2024-02-04T09:44:23;100790.47;;;10.13;69.10
61682;BME280;47577;43.610;25.010;2024-02-04T09:46:49;100770.22;;;10.09;70.39
61682;BME280;47577;43.610;25.010;2024-02-04T09:49:16;100754.88;;;10.20;70.48
61682;BME280;47577;43.610;25.010;2024-02-04T09:51:42;100759.53;;;10.11;70.00
61682;BME280;47577;43.610;25.010;2024-02-04T09:54:10;100754.88;;;10.20;69.22
61682;BME280;47577;43.610;25.010;2024-02-04T09:56:37;100758.34;;;10.22;69.86
61682;BME280;47577;43.610;25.010;2024-02-04T09:59:04;100750.63;;;10.13;69.64
61682;BME280;47577;43.610;25.010;2024-02-04T10:01:31;100743.50;;;10.14;70.05
61682;BME280;47577;43.610;25.010;2024-02-04T10:03:57;100746.94;;;10.19;70.64
61682;BME280;47577;43.610;25.010;2024-02-04T10:06:23;100732.22;;;10.05;70.73
61682;BME280;47577;43.610;25.010;2024-02-04T10:08:49;100746.13;;;10.15;71.14
61682;BME280;47577;43.610;25.010;2024-02-04T10:11:15;100753.75;;;10.29;70.31
61682;BME280;47577;43.610;25.010;2024-02-04T10:13:45;100750.34;;;10.24;70.09
61682;BME280;47577;43.610;25.010;2024-02-04T10:16:12;100743.59;;;10.11;69.76
61682;BME280;47577;43.610;25.010;2024-02-04T10:18:40;100756.69;;;10.18;70.23
61682;BME280;47577;43.610;25.010;2024-02-04T10:21:20;100739.25;;;10.08;69.97
61682;BME280;47577;43.610;25.010;2024-02-04T10:23:50;100770.72;;;10.23;69.81
61682;BME280;47577;43.610;25.010;2024-02-04T10:26:17;100744.94;;;10.27;69.52
61682;BME280;47577;43.610;25.010;2024-02-04T10:28:44;100766.75;;;10.41;69.60
61682;BME280;47577;43.610;25.010;2024-02-04T10:31:10;100743.94;;;10.33;69.13
61682;BME280;47577;43.610;25.010;2024-02-04T10:33:37;100742.75;;;10.43;69.23
61682;BME280;47577;43.610;25.010;2024-02-04T10:36:04;100735.53;;;10.48;69.29
61682;BME280;47577;43.610;25.010;2024-02-04T10:38:31;100737.97;;;10.56;68.55
61682;BME280;47577;43.610;25.010;2024-02-04T10:41:00;100722.63;;;10.66;68.18
61682;BME280;47577;43.610;25.010;2024-02-04T10:43:33;100734.31;;;10.60;66.95
61682;BME280;47577;43.610;25.010;2024-02-04T10:46:13;100712.81;;;10.68;67.84
61682;BME280;47577;43.610;25.010;2024-02-04T10:48:42;100723.94;;;10.82;67.47
61682;BME280;47577;43.610;25.010;2024-02-04T10:51:26;100733.13;;;10.70;67.27
61682;BME280;47577;43.610;25.010;2024-02-04T10:53:54;100707.81;;;10.87;66.67
61682;BME280;47577;43.610;25.010;2024-02-04T10:56:41;100712.94;;;11.23;65.95
61682;BME280;47577;43.610;25.010;2024-02-04T10:59:07;100711.13;;;11.23;66.01
61682;BME280;47577;43.610;25.010;2024-02-04T11:01:35;100715.00;;;11.41;64.43
61682;BME280;47577;43.610;25.010;2024-02-04T11:04:02;100682.16;;;11.42;64.77
61682;BME280;47577;43.610;25.010;2024-02-04T11:06:29;100699.19;;;11.63;63.88
61682;BME280;47577;43.610;25.010;2024-02-04T11:08:56;100704.38;;;11.68;63.41
61682;BME280;47577;43.610;25.010;2024-02-04T11:11:24;100685.53;;;11.47;63.86
61682;BME280;47577;43.610;25.010;2024-02-04T11:13:58;100703.88;;;11.28;63.87
61682;BME280;47577;43.610;25.010;2024-02-04T11:19:37;100675.00;;;11.16;64.13
61682;BME280;47577;43.610;25.010;2024-02-04T11:27:30;100661.19;;;11.31;64.30
61682;BME280;47577;43.610;25.010;2024-02-04T11:29:56;100689.81;;;11.51;63.72
61682;BME280;47577;43.610;25.010;2024-02-04T11:32:24;100685.94;;;11.87;63.48
61682;BME280;47577;43.610;25.010;2024-02-04T11:34:50;100684.06;;;11.92;61.78
61682;BME280;47577;43.610;25.010;2024-02-04T11:37:18;100680.41;;;12.20;60.74
61682;BME280;47577;43.610;25.010;2024-02-04T11:39:54;100670.59;;;12.46;60.22
61682;BME280;47577;43.610;25.010;2024-02-04T11:42:23;100654.16;;;12.56;60.13
61682;BME280;47577;43.610;25.010;2024-02-04T11:44:49;100652.97;;;12.87;60.14
61682;BME280;47577;43.610;25.010;2024-02-04T11:47:25;100646.03;;;12.59;58.96
61682;BME280;47577;43.610;25.010;2024-02-04T11:49:58;100662.03;;;12.59;58.48
61682;BME280;47577;43.610;25.010;2024-02-04T11:52:27;100648.31;;;12.70;59.30
61682;BME280;47577;43.610;25.010;2024-02-04T11:54:53;100644.28;;;12.58;59.15
61682;BME280;47577;43.610;25.010;2024-02-04T11:57:19;100649.22;;;12.93;58.51
61682;BME280;47577;43.610;25.010;2024-02-04T11:59:46;100635.97;;;12.90;57.93
61682;BME280;47577;43.610;25.010;2024-02-04T12:02:14;100645.53;;;12.95;59.05
61682;BME280;47577;43.610;25.010;2024-02-04T12:04:41;100652.44;;;13.01;56.79
61682;BME280;47577;43.610;25.010;2024-02-04T12:07:08;100633.13;;;13.16;56.20
61682;BME280;47577;43.610;25.010;2024-02-04T12:09:35;100611.13;;;13.32;56.76
61682;BME280;47577;43.610;25.010;2024-02-04T12:12:02;100623.44;;;13.14;57.10
61682;BME280;47577;43.610;25.010;2024-02-04T12:14:31;100637.84;;;13.32;55.02
61682;BME280;47577;43.610;25.010;2024-02-04T12:16:57;100667.84;;;13.39;56.81
61682;BME280;47577;43.610;25.010;2024-02-04T12:19:23;100648.53;;;13.32;55.64
61682;BME280;47577;43.610;25.010;2024-02-04T12:21:49;100633.38;;;13.32;54.61
61682;BME280;47577;43.610;25.010;2024-02-04T12:24:15;100629.09;;;13.28;57.00
61682;BME280;47577;43.610;25.010;2024-02-04T12:26:40;100603.38;;;13.48;56.91
61682;BME280;47577;43.610;25.010;2024-02-04T12:29:06;100616.53;;;13.73;57.11
61682;BME280;47577;43.610;25.010;2024-02-04T12:31:32;100598.44;;;13.80;54.03
61682;BME280;47577;43.610;25.010;2024-02-04T12:34:00;100597.91;;;13.92;55.46
61682;BME280;47577;43.610;25.010;2024-02-04T12:36:30;100604.22;;;13.89;53.89
61682;BME280;47577;43.610;25.010;2024-02-04T12:38:57;100604.66;;;13.60;54.85
61682;BME280;47577;43.610;25.010;2024-02-04T12:41:23;100593.97;;;13.60;53.57
61682;BME280;47577;43.610;25.010;2024-02-04T12:43:56;100590.78;;;13.72;53.73
61682;BME280;47577;43.610;25.010;2024-02-04T12:46:23;100577.34;;;13.74;54.69
61682;BME280;47577;43.610;25.010;2024-02-04T12:48:56;100582.97;;;13.86;54.61
61682;BME280;47577;43.610;25.010;2024-02-04T12:51:28;100588.06;;;13.93;53.88
61682;BME280;47577;43.610;25.010;2024-02-04T12:54:11;100571.13;;;14.13;54.04
61682;BME280;47577;43.610;25.010;2024-02-04T12:59:08;100573.28;;;14.23;52.42